Time;durP1;ratioP1;P1;durP2;ratioP2;P2;SDS_P1;SDS_P2;PMS_P1;PMS_P2;Temp;Humidity;BMP_temperature;BMP_pressure;BME280_temperature;BME280_humidity;BME280_pressure;Samples;Min_cycle;Max_cycle;Signal;HPM_P1;HPM_P2
2022/12/23 00:01:26;;;;;;;21.88;7.75;;;;;;;8.26;83.04;99073.47;4961250;28;20079;-60
2022/12/23 00:03:57;;;;;;;22.50;8.43;;;;;;;8.26;83.25;99068.31;4958496;28;20506;-57
2022/12/23 00:06:24;;;;;;;18.50;7.10;;;;;;;8.26;83.10;99064.03;4959215;28;20150;-58
2022/12/23 00:08:56;;;;;;;22.83;8.27;;;;;;;8.27;83.14;99064.91;4959719;28;20075;-57
2022/12/23 00:11:25;;;;;;;22.38;8.05;;;;;;;8.26;83.18;99063.16;4958002;28;20058;-57
2022/12/23 00:16:46;;;;;;;19.63;8.20;;;;;;;8.24;82.81;99065.75;4960558;28;20043;-60
2022/12/23 00:19:13;;;;;;;20.38;7.18;;;;;;;8.25;82.37;99062.34;4960707;28;20058;-56
2022/12/23 00:21:40;;;;;;;22.92;7.35;;;;;;;8.26;82.39;99076.94;4959689;28;20129;-59
2022/12/23 00:24:06;;;;;;;22.02;8.63;;;;;;;8.27;82.49;99076.06;4962679;28;20050;-61
2022/12/23 00:26:33;;;;;;;17.63;7.13;;;;;;;8.28;82.98;99066.59;4960354;28;20085;-58
2022/12/23 00:28:59;;;;;;;23.17;8.85;;;;;;;8.28;83.01;99076.91;4959801;28;20059;-58
2022/12/23 00:31:26;;;;;;;29.08;9.52;;;;;;;8.26;83.49;99076.94;4954830;28;20078;-58
2022/12/23 00:33:53;;;;;;;25.63;9.80;;;;;;;8.26;83.02;99078.66;4956411;28;20655;-60
2022/12/23 00:36:23;;;;;;;21.92;6.82;;;;;;;8.26;82.60;99078.66;4956494;28;20459;-58
2022/12/23 00:44:24;;;;;;;18.58;5.95;;;;;;;8.22;83.17;99083.84;4956284;28;20473;-61
2022/12/23 00:46:51;;;;;;;20.63;8.75;;;;;;;8.21;82.77;99082.13;4959634;28;20082;-56
2022/12/23 00:52:09;;;;;;;24.98;8.15;;;;;;;8.18;82.14;99082.16;4957370;28;20078;-57
2022/12/23 00:54:36;;;;;;;23.42;7.43;;;;;;;8.16;82.36;99091.63;4954972;28;20096;-61
2022/12/23 00:57:03;;;;;;;21.48;7.68;;;;;;;8.17;82.42;99083.03;4957852;28;20109;-59
2022/12/23 00:59:29;;;;;;;22.42;7.30;;;;;;;8.15;82.29;99089.94;4954430;28;20141;-58
2022/12/23 01:07:29;;;;;;;22.67;6.88;;;;;;;8.12;82.93;99061.56;4961093;28;20058;-58
2022/12/23 01:09:56;;;;;;;17.35;4.93;;;;;;;8.11;82.37;99070.19;4961120;28;20435;-61
2022/12/23 01:12:22;;;;;;;23.15;7.47;;;;;;;8.12;82.99;99074.47;4962813;28;20058;-61
2022/12/23 01:14:49;;;;;;;17.02;6.53;;;;;;;8.12;82.15;99073.59;4962684;28;20054;-59
2022/12/23 01:17:17;;;;;;;22.85;8.02;;;;;;;8.10;82.28;99068.47;4962563;28;20059;-59
2022/12/23 01:19:43;;;;;;;17.17;6.47;;;;;;;8.10;82.38;99068.47;4962127;28;20047;-58
2022/12/23 01:22:10;;;;;;;23.40;7.40;;;;;;;8.09;82.71;99061.59;4966579;28;20125;-57
2022/12/23 01:24:37;;;;;;;21.20;6.82;;;;;;;8.09;82.58;99056.44;4958242;28;20059;-59
2022/12/23 01:27:03;;;;;;;20.00;7.25;;;;;;;8.08;82.37;99059.91;4958885;28;20118;-60
2022/12/23 01:29:30;;;;;;;14.18;6.85;;;;;;;8.07;82.38;99053.03;4958246;28;20046;-60
2022/12/23 01:31:56;;;;;;;15.32;6.80;;;;;;;8.06;82.46;99041.00;4965078;28;20070;-61
2022/12/23 01:34:23;;;;;;;15.48;6.72;;;;;;;8.06;83.04;99041.84;4959194;28;22010;-55
2022/12/23 01:36:50;;;;;;;17.50;6.35;;;;;;;8.05;82.38;99034.13;4958113;28;20094;-55
2022/12/23 01:39:16;;;;;;;17.80;6.25;;;;;;;8.03;82.66;99030.69;4959468;28;21576;-55
2022/12/23 01:44:49;;;;;;;164.48;9.13;;;;;;;7.90;81.50;99046.28;4948372;28;20134;-57
2022/12/23 01:47:30;;;;;;;120.22;7.97;;;;;;;7.89;82.41;99065.19;4957245;28;20078;-60
2022/12/23 01:50:03;;;;;;;146.73;7.85;;;;;;;7.86;82.56;99080.69;4972411;28;20101;-59
2022/12/23 01:52:34;;;;;;;88.07;7.00;;;;;;;7.84;82.58;99082.44;4957572;28;20086;-55
2022/12/23 01:55:01;;;;;;;91.95;8.75;;;;;;;7.81;83.02;99066.97;4963156;28;20058;-59
2022/12/23 01:57:28;;;;;;;65.10;6.32;;;;;;;7.80;82.12;99070.44;4963851;28;20058;-58
2022/12/23 02:05:29;;;;;;;77.50;6.78;;;;;;;7.77;82.12;99109.94;4959921;28;20077;-60
2022/12/23 02:11:03;;;;;;;79.28;7.57;;;;;;;7.80;82.96;99109.09;4960386;28;20046;-57
2022/12/23 02:16:15;;;;;;;33.60;7.43;;;;;;;7.82;82.04;99107.34;4960855;28;20050;-57
2022/12/23 02:16:33;;;;;;;31.75;7.38;;;;;;;7.82;82.88;99112.50;4959428;28;20181;-57
2022/12/23 02:25:14;;;;;;;45.60;10.30;;;;;;;8.13;81.18;99104.56;5068196;27;20896;-60
2022/12/23 02:30:23;;;;;;;48.10;7.97;;;;;;;7.94;82.28;99078.91;5049264;28;20462;-58
2022/12/23 02:38:44;;;;;;;109.47;9.48;;;;;;;7.84;81.96;99077.28;5066537;27;20415;-57
2022/12/23 02:44:01;;;;;;;101.30;10.73;;;;;;;7.78;82.73;99056.69;5070942;27;20411;-57
2022/12/23 02:46:37;;;;;;;125.35;9.60;;;;;;;7.78;81.49;99064.41;5037010;28;20593;-58
2022/12/23 02:49:10;;;;;;;90.00;10.73;;;;;;;7.78;82.37;99072.16;5031713;28;21027;-59
2022/12/23 02:51:43;;;;;;;45.65;9.55;;;;;;;7.76;82.20;99069.59;5035190;28;20141;-59
2022/12/23 02:54:17;;;;;;;34.63;9.00;;;;;;;7.77;83.08;99070.44;5035749;28;20049;-58
2022/12/23 02:56:47;;;;;;;37.30;9.88;;;;;;;7.74;81.67;99065.31;5056679;28;20048;-58
2022/12/23 02:59:19;;;;;;;33.05;9.32;;;;;;;7.68;82.72;99072.22;5058033;28;20098;-61
2022/12/23 03:01:48;;;;;;;41.53;9.60;;;;;;;7.63;82.75;99067.97;5057231;28;20044;-57
2022/12/23 03:04:15;;;;;;;29.20;8.45;;;;;;;7.59;81.85;99077.41;5057719;27;20040;-56
2022/12/23 03:06:47;;;;;;;32.15;9.38;;;;;;;7.56;82.77;99073.16;5054043;28;20077;-60
2022/12/23 03:09:23;;;;;;;26.88;8.68;;;;;;;7.50;82.86;99057.72;5055046;28;20045;-58
2022/12/23 03:12:01;;;;;;;27.92;8.38;;;;;;;7.49;83.00;99056.00;5054995;28;20048;-59
2022/12/23 03:14:52;;;;;;;27.65;8.80;;;;;;;7.45;82.35;99057.75;5055232;28;20125;-60
2022/12/23 03:23:02;;;;;;;93.32;10.25;;;;;;;7.50;83.01;99062.03;5024661;28;20417;-57
2022/12/23 03:25:34;;;;;;;151.30;10.60;;;;;;;7.47;82.17;99070.63;5014310;28;20042;-57
2022/12/23 03:30:45;;;;;;;128.15;11.05;;;;;;;7.39;82.97;99060.38;5036679;28;20913;-57
2022/12/23 03:33:17;;;;;;;161.68;11.88;;;;;;;7.34;82.74;99067.28;4979298;28;20398;-61
2022/12/23 03:35:54;;;;;;;146.40;10.98;;;;;;;7.23;82.86;99056.16;4997808;28;20109;-58
2022/12/23 03:38:22;;;;;;;122.47;11.43;;;;;;;7.24;83.17;99039.84;4980412;28;20109;-56
2022/12/23 03:40:55;;;;;;;136.45;10.25;;;;;;;7.24;82.69;99037.25;4981288;28;20132;-58
2022/12/23 03:43:31;;;;;;;95.50;10.13;;;;;;;7.23;82.99;99049.28;4980335;28;20046;-58
2022/12/23 03:46:00;;;;;;;;;;;;;;;7.14;83.25;99047.63;4982671;28;20047;-58
2022/12/23 03:48:39;;;;;;;132.48;9.68;;;;;;;7.21;82.13;99056.16;4982737;28;19925;-56
2022/12/23 03:51:13;;;;;;;118.53;8.82;;;;;;;7.22;83.59;99054.47;4979549;28;20391;-59
2022/12/23 03:53:48;;;;;;;115.57;10.02;;;;;;;7.18;83.19;99061.31;4981201;28;20054;-53
2022/12/23 03:56:21;;;;;;;98.90;9.57;;;;;;;7.14;82.82;99059.63;4979540;28;20054;-60
2022/12/23 04:09:34;;;;;;;35.75;8.00;;;;;;;6.93;83.01;99026.25;5051309;27;20914;-60
2022/12/23 04:12:02;;;;;;;28.23;8.02;;;;;;;6.89;83.90;99029.69;5013877;28;20772;-57
2022/12/23 04:14:29;;;;;;;28.27;7.18;;;;;;;6.90;82.30;99021.13;5016751;28;20049;-58
2022/12/23 04:16:57;;;;;;;31.65;9.10;;;;;;;6.92;82.66;99009.09;5014898;28;20038;-58
2022/12/23 04:19:24;;;;;;;28.17;7.60;;;;;;;6.96;83.71;98999.66;5014577;28;20120;-52
2022/12/23 04:21:52;;;;;;;33.20;7.65;;;;;;;6.97;83.67;99014.22;5016689;28;20111;-57
2022/12/23 04:24:19;;;;;;;21.42;5.78;;;;;;;6.81;83.57;99009.16;5014843;28;20053;-59
2022/12/23 04:26:46;;;;;;;27.55;7.07;;;;;;;6.86;82.70;99013.41;5015513;28;20077;-56
2022/12/23 04:29:12;;;;;;;27.27;6.78;;;;;;;6.84;83.36;99016.00;5013238;28;20081;-59
2022/12/23 04:31:39;;;;;;;28.33;6.88;;;;;;;6.79;83.51;99028.03;5017148;28;20072;-56
2022/12/23 04:34:05;;;;;;;31.63;7.88;;;;;;;6.67;83.90;99024.66;5014415;28;20060;-61
2022/12/23 04:36:32;;;;;;;27.33;7.63;;;;;;;6.70;84.37;99026.34;5014927;28;20046;-56
2022/12/23 04:38:59;;;;;;;16.70;5.03;;;;;;;6.59;83.93;99028.97;5016328;28;20121;-58
2022/12/23 04:41:25;;;;;;;36.42;8.10;;;;;;;6.63;82.97;99028.09;5013572;28;20143;-60
2022/12/23 04:43:52;;;;;;;30.25;7.18;;;;;;;6.64;83.18;99011.78;5009367;28;20468;-59
2022/12/23 04:46:19;;;;;;;28.23;6.55;;;;;;;6.59;82.87;99018.66;5015414;28;20053;-55
2022/12/23 04:48:46;;;;;;;34.45;8.25;;;;;;;6.62;83.50;99010.09;5012316;28;20481;-57
2022/12/23 04:51:12;;;;;;;30.52;9.23;;;;;;;6.52;83.35;99014.41;5011940;28;20073;-61
2022/12/23 04:53:39;;;;;;;29.60;7.18;;;;;;;6.50;83.22;99021.25;5016946;28;20701;-55
2022/12/23 04:56:06;;;;;;;26.05;6.97;;;;;;;6.57;83.42;99022.94;5012399;28;20070;-61
2022/12/23 04:58:32;;;;;;;23.02;6.18;;;;;;;6.51;84.41;99022.97;5010764;28;20731;-54
2022/12/23 05:01:09;;;;;;;18.75;5.60;;;;;;;6.46;84.78;99014.41;5010237;28;20598;-59
2022/12/23 05:03:37;;;;;;;22.13;6.50;;;;;;;6.46;83.83;99014.41;5006486;28;20651;-60
2022/12/23 05:06:04;;;;;;;20.75;5.63;;;;;;;6.43;84.41;98995.53;5013521;28;20077;-55
2022/12/23 05:08:31;;;;;;;19.00;6.03;;;;;;;6.44;84.46;98975.81;5009660;28;20041;-60
2022/12/23 05:10:58;;;;;;;21.83;6.57;;;;;;;6.44;84.64;98968.09;5012170;28;20041;-57
2022/12/23 05:13:25;;;;;;;26.70;6.07;;;;;;;6.45;84.63;98961.25;5010452;28;20073;-57
2022/12/23 05:15:53;;;;;;;15.82;6.05;;;;;;;6.44;84.74;98960.38;5013528;28;20697;-57
2022/12/23 05:18:20;;;;;;;21.35;6.22;;;;;;;6.47;83.15;98972.38;5008817;28;20034;-56
2022/12/23 05:20:48;;;;;;;19.77;5.85;;;;;;;6.47;84.43;98972.38;4992670;28;20080;-59
2022/12/23 05:23:14;;;;;;;16.48;6.28;;;;;;;6.41;84.67;98966.41;4998609;28;20652;-55
2022/12/23 05:25:41;;;;;;;22.25;6.35;;;;;;;6.45;83.19;98956.13;4999359;28;20041;-55
2022/12/23 05:28:08;;;;;;;16.38;5.30;;;;;;;6.41;84.20;98963.84;5000267;28;20071;-57
2022/12/23 05:30:35;;;;;;;29.00;6.63;;;;;;;6.43;84.58;98956.94;5002588;28;20053;-58
2022/12/23 05:33:01;;;;;;;27.38;7.20;;;;;;;6.47;84.27;98957.81;5001338;28;20137;-57
2022/12/23 05:35:28;;;;;;;20.45;5.88;;;;;;;6.45;83.57;98953.53;4996890;28;20089;-61
2022/12/23 05:37:56;;;;;;;23.90;6.22;;;;;;;6.48;84.09;98956.09;4996181;28;20078;-57
2022/12/23 05:40:23;;;;;;;19.25;5.63;;;;;;;6.48;84.71;98950.97;4998658;28;20046;-57
2022/12/23 05:42:56;;;;;;;28.10;6.43;;;;;;;6.52;83.27;98947.50;4998293;28;20046;-58
2022/12/23 05:45:23;;;;;;;21.45;5.55;;;;;;;6.56;84.23;98931.19;4998227;28;21640;-57
2022/12/23 05:47:49;;;;;;;22.92;5.93;;;;;;;6.58;83.72;98916.59;5000187;28;20081;-56
2022/12/23 05:50:17;;;;;;;28.20;5.70;;;;;;;6.59;83.83;98910.63;4996185;28;20056;-59
2022/12/23 05:52:44;;;;;;;29.35;7.57;;;;;;;6.61;83.32;98901.16;4996085;28;20729;-58
2022/12/23 05:55:10;;;;;;;27.00;6.07;;;;;;;6.63;84.23;98909.72;4998932;28;20208;-55
2022/12/23 05:57:37;;;;;;;23.48;5.70;;;;;;;6.64;82.63;98911.44;5001523;28;20078;-57
2022/12/23 06:00:04;;;;;;;21.73;5.07;;;;;;;6.65;82.94;98897.69;5001608;28;20050;-58
2022/12/23 06:02:30;;;;;;;29.98;6.40;;;;;;;6.65;83.12;98881.38;4998916;28;20605;-61
2022/12/23 06:04:57;;;;;;;22.30;4.75;;;;;;;6.65;83.19;98874.53;4983308;28;20051;-58
2022/12/23 06:07:24;;;;;;;29.50;6.18;;;;;;;6.66;84.23;98883.97;4974211;28;20054;-55
2022/12/23 06:09:50;;;;;;;38.47;6.13;;;;;;;6.67;83.98;98885.69;4977562;28;20061;-59
2022/12/23 06:12:17;;;;;;;36.53;5.10;;;;;;;6.66;83.27;98860.81;4976807;28;20821;-61
2022/12/23 06:14:43;;;;;;;96.78;6.53;;;;;;;6.65;83.33;98856.53;4975667;28;20058;-58
2022/12/23 06:17:10;;;;;;;93.72;6.28;;;;;;;6.66;82.45;98853.09;4977507;28;20073;-60
2022/12/23 06:19:36;;;;;;;84.28;6.13;;;;;;;6.67;82.71;98844.53;4974743;28;20074;-61
2022/12/23 06:22:03;;;;;;;66.57;4.80;;;;;;;6.65;83.90;98835.94;4974392;28;20126;-59
2022/12/23 06:24:30;;;;;;;85.78;5.10;;;;;;;6.63;82.31;98832.53;4973141;28;20500;-60
2022/12/23 06:26:56;;;;;;;99.63;6.40;;;;;;;6.59;83.93;98830.84;4978054;28;20090;-57
2022/12/23 06:29:23;;;;;;;45.60;3.95;;;;;;;6.42;83.50;98833.53;4979899;28;20639;-60
2022/12/23 06:31:50;;;;;;;65.53;5.00;;;;;;;6.38;84.60;98832.66;4974153;28;20061;-56
2022/12/23 06:34:17;;;;;;;68.22;4.88;;;;;;;6.39;83.49;98812.94;4979954;28;20290;-56
2022/12/23 06:36:43;;;;;;;39.92;4.07;;;;;;;6.44;83.41;98806.06;4979454;28;20189;-60
2022/12/23 06:39:10;;;;;;;54.80;4.65;;;;;;;6.45;83.92;98791.50;4977264;28;20176;-58
2022/12/23 06:41:37;;;;;;;24.17;4.70;;;;;;;6.32;83.39;98801.84;4975548;28;20077;-60
2022/12/23 06:44:04;;;;;;;15.27;3.28;;;;;;;6.16;85.39;98795.94;4976682;28;20525;-52
2022/12/23 06:46:30;;;;;;;16.80;3.80;;;;;;;6.20;84.73;98771.03;4979284;28;20054;-56
2022/12/23 06:48:57;;;;;;;29.83;4.55;;;;;;;6.26;84.95;98753.03;4980602;28;20054;-58
2022/12/23 06:51:24;;;;;;;72.50;5.05;;;;;;;6.24;83.94;98739.31;4978770;28;20054;-56
2022/12/23 06:53:50;;;;;;;67.07;4.65;;;;;;;6.23;83.55;98735.03;4979135;28;20104;-53
2022/12/23 06:56:17;;;;;;;57.83;3.55;;;;;;;6.11;84.72;98725.69;4980339;28;20081;-59
2022/12/23 06:58:44;;;;;;;51.85;4.22;;;;;;;6.11;85.09;98741.94;4977894;28;20076;-61
2022/12/23 07:01:11;;;;;;;93.88;5.28;;;;;;;6.11;85.45;98751.41;4978609;28;20042;-57
2022/12/23 07:03:37;;;;;;;60.10;4.93;;;;;;;6.07;85.26;98760.81;4976261;28;20101;-59
2022/12/23 07:06:04;;;;;;;70.38;5.30;;;;;;;6.04;84.71;98756.56;4978393;28;20062;-56
2022/12/23 07:08:31;;;;;;;61.38;4.93;;;;;;;5.95;85.07;98755.72;4974089;28;20038;-55
2022/12/23 07:10:58;;;;;;;39.42;5.13;;;;;;;5.92;84.95;98756.59;4970813;28;20073;-60
2022/12/23 07:13:25;;;;;;;21.17;3.20;;;;;;;5.89;84.77;98747.19;4975488;28;20058;-58
2022/12/23 07:15:52;;;;;;;70.47;5.57;;;;;;;5.92;85.31;98721.44;4975467;28;20065;-58
2022/12/23 07:18:21;;;;;;;49.00;4.25;;;;;;;5.98;85.26;98709.44;4978193;28;20042;-57
2022/12/23 07:20:49;;;;;;;38.45;4.68;;;;;;;5.97;85.26;98707.72;4976881;28;20054;-61
2022/12/23 07:23:16;;;;;;;17.88;2.97;;;;;;;5.79;85.74;98709.53;4974188;28;20816;-54
2022/12/23 07:25:43;;;;;;;13.02;3.00;;;;;;;5.82;86.19;98714.66;4978936;28;20112;-56
2022/12/23 07:28:10;;;;;;;17.95;3.67;;;;;;;5.82;85.99;98719.81;4988507;28;20568;-60
2022/12/23 07:30:36;;;;;;;13.30;3.08;;;;;;;5.73;85.99;98724.97;4991757;28;20717;-60
2022/12/23 07:33:03;;;;;;;15.68;3.80;;;;;;;5.74;87.10;98726.69;4990145;28;20110;-58
2022/12/23 07:35:29;;;;;;;14.63;3.35;;;;;;;5.72;86.03;98738.69;4995245;28;20078;-58
2022/12/23 07:37:56;;;;;;;12.65;3.88;;;;;;;5.73;85.56;98753.22;4994170;28;20069;-58
2022/12/23 07:40:23;;;;;;;13.20;2.85;;;;;;;5.73;86.36;98751.53;4994294;28;20139;-55
2022/12/23 07:42:55;;;;;;;18.35;3.85;;;;;;;5.73;87.25;98755.81;4990722;28;20131;-58
2022/12/23 07:45:23;;;;;;;8.40;2.55;;;;;;;5.71;86.77;98757.53;4988949;28;20057;-61
2022/12/23 07:47:53;;;;;;;15.82;3.25;;;;;;;5.73;86.75;98760.94;4996734;28;20049;-59
2022/12/23 07:50:20;;;;;;;13.57;3.33;;;;;;;5.70;86.77;98751.53;4988014;28;20050;-59
2022/12/23 07:52:47;;;;;;;11.85;4.43;;;;;;;5.78;85.90;98743.81;4993953;28;20630;-56
2022/12/23 07:55:14;;;;;;;14.40;3.67;;;;;;;5.78;86.99;98728.41;4993428;28;20057;-58
2022/12/23 07:57:40;;;;;;;7.88;2.78;;;;;;;5.87;86.42;98720.63;4994877;28;20066;-58
2022/12/23 08:00:10;;;;;;;14.02;4.70;;;;;;;5.92;86.09;98721.44;4998434;28;20148;-57
2022/12/23 08:02:37;;;;;;;13.02;3.40;;;;;;;5.90;86.78;98712.91;4992863;28;20073;-54
2022/12/23 08:05:04;;;;;;;11.70;3.65;;;;;;;5.98;84.87;98704.31;4991790;28;20042;-56
2022/12/23 08:07:31;;;;;;;10.93;3.30;;;;;;;6.01;85.23;98700.00;4989713;28;20509;-57
2022/12/23 08:09:57;;;;;;;12.25;4.05;;;;;;;6.03;85.61;98688.03;4993048;28;20041;-58
2022/12/23 08:12:24;;;;;;;12.65;4.05;;;;;;;6.03;84.95;98677.75;4993556;28;20085;-55
2022/12/23 08:14:51;;;;;;;14.05;4.10;;;;;;;6.09;84.85;98671.72;4998387;28;20053;-57
2022/12/23 08:17:20;;;;;;;10.82;4.03;;;;;;;6.11;84.79;98654.53;4994854;28;20080;-57
2022/12/23 08:19:47;;;;;;;10.02;3.17;;;;;;;6.15;85.78;98645.94;4993388;28;20045;-59
2022/12/23 08:22:14;;;;;;;13.27;3.83;;;;;;;6.15;84.51;98634.81;4990279;28;20109;-59
2022/12/23 08:24:41;;;;;;;11.70;3.70;;;;;;;6.15;84.09;98635.66;4996087;28;20062;-58
2022/12/23 08:27:07;;;;;;;15.25;5.00;;;;;;;6.12;85.04;98645.97;5001781;28;20607;-56
2022/12/23 08:29:34;;;;;;;13.55;3.60;;;;;;;6.13;84.61;98637.41;4995758;28;20049;-55
2022/12/23 08:32:02;;;;;;;13.20;3.58;;;;;;;6.12;84.52;98635.69;5001367;28;20129;-56
2022/12/23 08:34:28;;;;;;;10.68;4.03;;;;;;;6.06;85.44;98635.75;4997294;28;20050;-56
2022/12/23 08:36:55;;;;;;;12.25;3.47;;;;;;;6.11;84.40;98644.25;5000377;28;20046;-56
2022/12/23 08:39:22;;;;;;;9.43;3.15;;;;;;;6.08;84.02;98638.31;4996909;28;20552;-56
2022/12/23 08:41:48;;;;;;;9.90;3.05;;;;;;;6.06;85.47;98640.88;4996122;28;20046;-60
2022/12/23 08:44:16;;;;;;;11.02;3.45;;;;;;;6.10;84.65;98651.97;4998287;28;20081;-57
2022/12/23 08:46:43;;;;;;;9.35;3.78;;;;;;;6.09;85.57;98635.72;4995568;28;20094;-57
2022/12/23 08:49:10;;;;;;;8.00;3.22;;;;;;;6.12;83.99;98612.53;4993132;28;20134;-60
2022/12/23 08:51:37;;;;;;;9.57;3.30;;;;;;;6.15;84.83;98609.94;4996302;28;20073;-57
2022/12/23 08:54:05;;;;;;;8.93;2.50;;;;;;;6.10;84.66;98604.00;4996505;28;20085;-59
2022/12/23 08:56:35;;;;;;;8.60;2.42;;;;;;;6.16;83.83;98585.97;4998824;28;20097;-56
2022/12/23 08:59:03;;;;;;;8.38;2.20;;;;;;;6.15;83.78;98579.09;5000420;28;20720;-57
2022/12/23 09:01:32;;;;;;;7.13;2.25;;;;;;;6.20;84.24;98580.78;4995881;28;20073;-59
2022/12/23 09:04:04;;;;;;;9.00;3.03;;;;;;;6.23;84.89;98575.63;4999764;28;20041;-58
2022/12/23 09:06:35;;;;;;;7.97;3.20;;;;;;;6.19;85.21;98559.38;5000424;28;20060;-60
2022/12/23 09:09:03;;;;;;;9.45;2.92;;;;;;;6.24;84.53;98561.88;4991953;28;20077;-56
2022/12/23 09:11:30;;;;;;;8.38;3.03;;;;;;;6.25;84.54;98558.47;4996990;28;20101;-54
2022/12/23 09:13:58;;;;;;;8.57;2.80;;;;;;;6.27;84.65;98567.00;5002383;28;20049;-59
2022/12/23 09:16:25;;;;;;;9.32;2.65;;;;;;;6.27;85.23;98554.16;5001214;28;20509;-53
2022/12/23 09:18:52;;;;;;;10.18;1.85;;;;;;;6.26;84.36;98550.75;4995076;28;20134;-59
2022/12/23 09:21:20;;;;;;;5.40;1.92;;;;;;;6.29;84.00;98565.28;5000355;28;20132;-56
2022/12/23 09:23:47;;;;;;;5.78;1.77;;;;;;;6.29;83.49;98562.72;5003505;28;20054;-58
2022/12/23 09:26:20;;;;;;;6.35;2.65;;;;;;;6.30;84.66;98569.56;4997623;28;20133;-59
2022/12/23 09:28:46;;;;;;;6.90;2.15;;;;;;;6.33;85.09;98568.66;4999040;28;20136;-57
2022/12/23 09:31:14;;;;;;;7.68;2.83;;;;;;;6.34;84.02;98563.50;4997117;28;20498;-56
2022/12/23 09:33:41;;;;;;;5.80;1.67;;;;;;;6.36;84.39;98572.09;5000232;28;20068;-57
2022/12/23 09:36:08;;;;;;;6.03;1.90;;;;;;;6.37;83.69;98563.50;4998299;28;20158;-58
2022/12/23 09:38:35;;;;;;;5.80;2.85;;;;;;;6.37;84.83;98572.91;5004248;28;20042;-57
2022/12/23 09:46:50;;;;;;;7.90;4.55;;;;;;;6.22;83.80;98553.34;5014165;28;20414;-56
2022/12/23 09:49:18;;;;;;;6.35;3.03;;;;;;;6.22;84.35;98543.06;4994244;28;20694;-58
2022/12/23 09:51:46;;;;;;;4.22;1.55;;;;;;;6.23;85.21;98526.75;4996364;28;20384;-54
2022/12/23 09:54:37;;;;;;;7.05;3.25;;;;;;;6.22;84.73;98517.34;4995838;28;20137;-57
2022/12/23 10:00:10;;;;;;;5.38;1.75;;;;;;;6.13;84.55;98508.00;5014871;27;20402;-57
2022/12/23 10:05:55;;;;;;;7.35;3.42;;;;;;;6.16;84.75;98513.97;5043344;27;20405;-59
2022/12/23 10:08:32;;;;;;;6.55;3.15;;;;;;;6.16;84.18;98505.41;5016319;28;20076;-53
2022/12/23 10:11:06;;;;;;;4.72;2.67;;;;;;;6.19;85.36;98501.94;5035686;28;20119;-58
2022/12/23 10:16:17;;;;;;;4.05;1.80;;;;;;;6.29;84.44;98488.16;5110402;27;20397;-56
2022/12/23 10:19:13;;;;;;;3.80;1.05;;;;;;;6.27;84.73;98487.28;5076540;28;20865;-57
2022/12/23 10:24:21;;;;;;;5.57;2.05;;;;;;;6.35;84.02;98475.19;5036585;28;20403;-57
2022/12/23 10:26:55;;;;;;;6.63;1.98;;;;;;;6.35;84.03;98475.19;4979438;28;20111;-56
2022/12/23 10:29:24;;;;;;;5.22;1.92;;;;;;;6.40;84.06;98475.16;4995774;28;20054;-57
2022/12/23 10:32:30;;;;;;;3.63;1.50;;;;;;;6.35;84.27;98476.94;5004871;28;20514;-58
2022/12/23 10:35:27;;;;;;;3.42;1.65;;;;;;;6.37;84.42;98481.19;4989745;28;20136;-59
2022/12/23 10:41:01;;;;;;;5.47;2.13;;;;;;;6.39;83.80;98469.16;5080196;27;20395;-54
2022/12/23 10:43:54;;;;;;;;;;;;;;;6.35;83.91;98472.63;5044784;28;20703;-59
2022/12/23 10:54:48;;;;;;;6.38;2.95;;;;;;;6.53;84.87;98447.59;5040082;28;20394;-57
2022/12/23 10:57:17;;;;;;;5.03;2.90;;;;;;;6.55;84.55;98438.09;5000332;28;20046;-56
2022/12/23 10:59:44;;;;;;;5.15;2.75;;;;;;;6.53;84.29;98430.44;5002812;28;20077;-58
2022/12/23 11:04:48;;;;;;;3.83;1.60;;;;;;;6.53;84.40;98434.72;5037559;27;20409;-59
2022/12/23 11:07:20;;;;;;;4.18;1.85;;;;;;;6.56;84.04;98434.69;5016375;28;20048;-57
2022/12/23 11:10:15;;;;;;;4.38;1.80;;;;;;;6.49;83.96;98427.91;5018952;28;20047;-58
2022/12/23 11:12:46;;;;;;;4.53;1.50;;;;;;;6.53;84.04;98430.44;5017038;28;20064;-57
2022/12/23 11:15:34;;;;;;;3.30;1.77;;;;;;;6.49;84.77;98426.19;5015876;28;20053;-58
2022/12/23 11:20:44;;;;;;;6.80;2.45;;;;;;;6.47;85.30;98427.06;5019991;27;20402;-56
2022/12/23 11:23:30;;;;;;;4.03;2.72;;;;;;;6.51;84.40;98427.03;5013875;28;20563;-59
2022/12/23 11:26:01;;;;;;;2.72;0.93;;;;;;;6.51;84.80;98427.03;5010030;28;20492;-56
2022/12/23 11:28:30;;;;;;;4.78;3.28;;;;;;;6.57;84.78;98423.53;5015205;28;20103;-58
2022/12/23 11:31:10;;;;;;;2.88;2.13;;;;;;;6.60;84.98;98426.06;5015295;28;20115;-58
2022/12/23 11:33:44;;;;;;;2.30;1.77;;;;;;;6.63;83.97;98423.47;5015069;28;20050;-59
2022/12/23 11:38:53;;;;;;;2.97;1.95;;;;;;;6.67;84.53;98429.41;5058304;27;20388;-56
2022/12/23 11:41:22;;;;;;;1.67;0.73;;;;;;;6.70;85.07;98437.09;5016196;28;20218;-53
2022/12/23 11:44:27;;;;;;;5.03;1.58;;;;;;;6.72;84.33;98439.63;5012176;28;20530;-59
2022/12/23 11:46:54;;;;;;;14.80;5.45;;;;;;;6.78;84.91;98434.41;5007438;28;20407;-58
2022/12/23 11:52:17;;;;;;;12.88;4.68;;;;;;;6.82;84.00;98428.34;5047120;28;20414;-59
2022/12/23 11:54:53;;;;;;;5.22;1.58;;;;;;;6.86;84.80;98430.00;5008519;28;20155;-56
2022/12/23 11:57:29;;;;;;;3.58;1.80;;;;;;;6.90;84.65;98429.09;4997882;28;20042;-57
2022/12/23 12:00:00;;;;;;;3.28;1.13;;;;;;;6.93;84.51;98431.63;5001984;28;20801;-57
2022/12/23 12:07:42;;;;;;;6.75;1.70;;;;;;;6.99;83.63;98437.56;5039198;28;20436;-59
2022/12/23 12:10:17;;;;;;;29.70;11.23;;;;;;;7.00;83.69;98428.97;5018885;28;20041;-57
2022/12/23 12:12:44;;;;;;;17.40;7.63;;;;;;;7.04;84.78;98435.78;5014509;28;20132;-57
2022/12/23 12:15:26;;;;;;;4.75;2.38;;;;;;;7.05;84.89;98416.88;5019413;28;20042;-58
2022/12/23 12:17:55;;;;;;;6.65;3.53;;;;;;;7.08;84.07;98411.69;5039548;28;20134;-57
2022/12/23 12:20:37;;;;;;;8.23;4.53;;;;;;;7.07;84.52;98412.56;5021689;28;20077;-59
2022/12/23 12:23:11;;;;;;;4.50;1.77;;;;;;;7.08;84.37;98406.53;5012481;28;20073;-59
2022/12/23 12:25:45;;;;;;;5.22;2.55;;;;;;;7.10;83.73;98394.50;5015459;28;20104;-59
2022/12/23 12:28:19;;;;;;;3.65;1.38;;;;;;;7.15;83.18;98392.69;5016414;28;20104;-59
2022/12/23 12:30:52;;;;;;;3.45;2.38;;;;;;;7.22;83.85;98392.59;5021456;28;20405;-57
2022/12/23 12:33:29;;;;;;;3.47;2.20;;;;;;;7.25;84.34;98392.53;5017765;28;20648;-56
2022/12/23 12:36:08;;;;;;;2.13;1.08;;;;;;;7.27;84.30;98393.38;5016395;28;20042;-58
2022/12/23 12:38:37;;;;;;;3.75;1.58;;;;;;;7.29;84.59;98400.19;5015038;28;20076;-53
2022/12/23 12:44:32;;;;;;;3.90;1.75;;;;;;;7.27;83.89;98413.97;5095443;27;20415;-56
2022/12/23 12:47:05;;;;;;;3.35;1.52;;;;;;;7.28;84.37;98400.22;5097419;28;20067;-56
2022/12/23 12:49:58;;;;;;;2.85;2.33;;;;;;;7.26;83.28;98404.56;5096116;27;20040;-58
2022/12/23 12:52:26;;;;;;;1.98;1.65;;;;;;;7.27;84.61;98401.09;5097427;28;20146;-58
2022/12/23 12:57:35;;;;;;;3.35;1.52;;;;;;;7.66;82.27;98403.88;5046554;27;20416;-58
2022/12/23 13:00:04;;;;;;;3.40;0.95;;;;;;;7.45;83.08;98400.81;5002042;28;20454;-57
2022/12/23 13:10:55;;;;;;;3.55;2.25;;;;;;;7.43;84.30;98414.59;5075339;27;20398;-59
2022/12/23 13:13:30;;;;;;;;;;;;;;;7.39;84.43;98400.91;5056609;28;20041;-61
2022/12/23 13:16:26;;;;;;;3.33;3.03;;;;;;;7.40;84.13;98397.44;5056131;28;19989;-58
2022/12/23 13:27:01;;;;;;;3.50;1.20;;;;;;;7.55;83.97;98406.66;5020886;27;20419;-59
2022/12/23 13:32:32;;;;;;;1.98;0.90;;;;;;;7.58;83.91;98410.91;4997767;28;20432;-58
2022/12/23 13:35:38;;;;;;;2.45;1.15;;;;;;;7.58;83.58;98400.59;4996710;28;20100;-60
2022/12/23 13:43:48;;;;;;;1.55;0.90;;;;;;;7.67;84.13;98405.56;5004331;28;20898;-58
2022/12/23 13:49:07;;;;;;;2.13;1.08;;;;;;;7.70;84.08;98421.00;5030119;28;21116;-60
2022/12/23 13:56:56;;;;;;;2.72;1.42;;;;;;;7.60;83.23;98424.59;5119021;27;20391;-60
2022/12/23 13:59:38;;;;;;;2.00;0.77;;;;;;;7.56;83.91;98422.94;5091641;28;20067;-58
2022/12/23 14:02:41;;;;;;;2.75;1.27;;;;;;;7.56;84.13;98420.38;5101971;27;20052;-60
2022/12/23 14:08:07;;;;;;;4.00;2.35;;;;;;;7.97;82.76;98407.63;5069033;27;20404;-60
2022/12/23 14:10:34;;;;;;;3.38;0.73;;;;;;;7.80;83.46;98407.97;5057670;28;20100;-59
2022/12/23 14:13:07;;;;;;;2.20;2.00;;;;;;;7.80;84.20;98415.69;5055804;28;20073;-57
2022/12/23 14:20:54;;;;;;;2.10;1.25;;;;;;;7.89;84.02;98425.84;5062869;28;20387;-59
2022/12/23 14:26:23;;;;;;;2.58;1.38;;;;;;;7.92;83.40;98419.75;5043414;27;20397;-59
2022/12/23 14:31:39;;;;;;;2.13;1.92;;;;;;;7.89;83.11;98420.69;5114086;27;20409;-59
2022/12/23 14:34:29;;;;;;;3.08;2.45;;;;;;;7.85;83.34;98411.31;5099474;27;20044;-59